الصفحة الرئيسية
METAR-TAF:

METAR-TAF

مطار :

قزوين, إيران

دائرة عرض: 36-15N, خط طول: 050-00E, ارتفاع: 1278 متر

مراقبة الطقس الحالي

تاريخ ووقت الإصدار 2ساعات و 18 دقيقة قبل الساعة 20:00UTC
ريح 2 عقدة من الشمال/الشمال الغربي
درجة الحرارة 22°درجة مئوية
الرطوبة 53%
ضغط 1013 hPa
الرؤية 10 كم أو أكثر
غيوم قليلة على ارتفاع 4000 قدم

METAR: OIIK 242000Z 33002KT 9999 FEW040 22/12 Q1013

زمن: 02:48 (22:18 UTC)


TAF: مفقودة

أرصاد الطقس والتوقعات من أكثر من 4000 مطار (تقارير الطقس للمطار METAR والتنبؤ بالطقس بالمطارTAF).

المحطات المتاحة هي النقط الصفراء والحمراء على الخريطة.

حرك المؤشر فوق النقطة لمعرفة اسم المحطة.

ثم انقر لمعرفة أرصاد وتوقعات الطقس.

لتغيير الخارطة: اضغط على الأزرار الخضراء مع رمز الصليب الأسود للتكبير. على الزر الأخضر مع شرطة للتصغير، أو على الأسهم الخضراء للخرائط المجاورة.


METAR-TAF: